createdAt,value
2023-02-19T03:32:53.611Z,29.00
2023-02-19T03:39:20.497Z,34.00
2023-02-19T03:46:26.153Z,30.50
2023-02-19T03:53:00.807Z,32.50
2023-02-19T04:06:07.747Z,29.00
2023-02-19T04:12:25.409Z,39.00
2023-02-19T04:18:40.084Z,35.00
2023-02-19T04:24:59.303Z,33.00
2023-02-19T04:31:20.528Z,38.25
2023-02-19T04:37:53.274Z,35.50
2023-02-19T04:44:10.357Z,33.00
2023-02-19T04:50:26.048Z,30.75
2023-02-19T04:56:34.525Z,36.00
2023-02-19T05:02:41.286Z,30.50
2023-02-19T05:08:54.368Z,37.00
2023-02-19T05:21:26.179Z,35.75
2023-02-19T05:27:40.766Z,37.00
2023-02-19T18:35:54.477Z,21.67
2023-02-19T18:42:22.298Z,21.33
2023-02-19T18:48:34.580Z,17.67
2023-02-19T18:54:40.709Z,21.33
2023-02-19T19:01:02.814Z,16.00
2023-02-19T19:07:19.219Z,17.33
2023-02-19T19:13:51.036Z,25.00
2023-02-19T19:20:01.800Z,25.50
2023-02-19T19:26:14.021Z,25.50
2023-02-19T19:38:43.684Z,12.50
2023-02-19T19:45:18.258Z,28.75
2023-02-19T19:51:33.012Z,16.67
2023-02-19T19:57:58.097Z,23.00
2023-02-19T20:04:08.205Z,29.25
2023-02-19T20:10:27.112Z,22.75
2023-02-19T20:16:44.566Z,27.25
2023-02-19T20:22:54.866Z,25.25
2023-02-19T20:29:15.599Z,24.00
2023-02-19T20:35:32.024Z,25.75
2023-02-19T20:42:01.492Z,25.75
2023-02-19T20:48:14.273Z,21.50
2023-02-19T20:54:32.313Z,21.25
2023-02-19T21:01:09.608Z,31.50
2023-02-19T21:07:23.394Z,25.50
2023-02-19T21:13:52.599Z,21.25
2023-02-19T21:20:05.946Z,22.00
2023-02-19T21:26:25.652Z,22.50
2023-02-19T21:32:41.730Z,15.25
2023-02-19T21:38:46.549Z,14.75
2023-02-19T21:44:56.959Z,20.75
2023-02-19T21:51:07.187Z,21.75
2023-02-19T21:57:14.919Z,21.25
2023-02-19T22:03:26.020Z,19.00
2023-02-19T22:10:25.334Z,15.00
2023-02-19T22:16:49.845Z,16.75
2023-02-19T22:23:00.933Z,17.25
2023-02-19T22:29:16.908Z,19.00
2023-02-19T22:35:39.254Z,19.25
2023-02-19T22:41:47.181Z,23.00
2023-02-19T22:48:00.314Z,21.50
2023-02-19T22:54:14.142Z,23.00
2023-02-19T23:00:36.172Z,22.50
2023-02-19T23:06:45.960Z,24.50
2023-02-19T23:13:00.861Z,22.50
2023-02-19T23:19:24.239Z,28.75
2023-02-19T23:32:03.239Z,25.00
2023-02-19T23:38:18.539Z,25.25
2023-02-19T23:44:28.453Z,32.25
2023-02-19T23:50:54.022Z,17.75
2023-02-19T23:57:07.176Z,31.75
